createdAt,value
2018-07-08T16:05:28.631Z,26.00
2018-07-08T16:07:57.509Z,25.70
2018-07-08T16:10:30.188Z,25.70
2018-07-08T16:12:59.188Z,25.60
2018-07-08T16:15:28.271Z,25.20
2018-07-08T16:17:57.011Z,25.40
2018-07-08T16:20:25.914Z,25.30
2018-07-08T16:22:54.712Z,25.40
2018-07-08T16:25:23.429Z,25.40
2018-07-08T16:27:55.375Z,25.30
2018-07-08T16:30:28.324Z,25.30
2018-07-08T16:32:58.330Z,25.30
2018-07-08T16:35:27.035Z,25.00
2018-07-08T16:37:55.748Z,25.10
2018-07-08T16:40:24.404Z,25.20
2018-07-08T16:42:53.040Z,25.20
2018-07-08T16:45:21.733Z,25.30
2018-07-08T16:47:53.204Z,25.10
2018-07-08T16:50:22.527Z,24.90
2018-07-08T16:52:51.378Z,24.90
2018-07-08T16:55:19.950Z,24.80
2018-07-08T16:57:48.626Z,25.00
2018-07-08T17:00:17.341Z,25.10
2018-07-08T17:02:46.000Z,25.00
2018-07-08T17:05:21.740Z,25.00
2018-07-08T17:07:50.321Z,25.10
2018-07-08T17:10:18.954Z,25.00
2018-07-08T17:12:48.596Z,25.10
2018-07-08T17:15:17.583Z,24.90
2018-07-08T17:17:48.252Z,24.80
2018-07-08T17:20:17.834Z,24.90
2018-07-08T17:22:46.606Z,24.80
2018-07-08T17:25:15.189Z,25.00
2018-07-08T17:27:43.856Z,25.00
2018-07-08T17:30:12.720Z,25.00
2018-07-08T17:32:42.401Z,24.90
2018-07-08T17:35:11.432Z,24.90
2018-07-08T17:37:40.331Z,24.70
2018-07-08T17:40:09.174Z,24.70
2018-07-08T17:42:37.909Z,24.70
2018-07-08T17:45:07.049Z,24.80
2018-07-08T17:47:35.996Z,24.80
2018-07-08T17:50:04.627Z,24.60
2018-07-08T17:52:33.176Z,24.50
2018-07-08T17:55:04.202Z,24.30
2018-07-08T17:57:32.861Z,24.20
2018-07-08T18:00:02.572Z,24.10
2018-07-08T18:02:31.258Z,24.20
2018-07-08T18:04:59.774Z,24.00
2018-07-08T18:07:28.414Z,23.90
2018-07-08T18:09:57.160Z,23.80
2018-07-08T18:12:26.133Z,23.80
2018-07-08T18:14:54.621Z,23.90
2018-07-08T18:17:23.223Z,23.90
2018-07-08T18:19:51.724Z,23.80
2018-07-08T18:22:20.265Z,23.70
2018-07-08T18:24:48.920Z,23.60
2018-07-08T18:27:18.013Z,23.60
2018-07-08T18:29:46.572Z,23.60
2018-07-08T18:32:15.129Z,23.50
2018-07-08T18:34:43.812Z,23.50
2018-07-08T18:37:12.528Z,23.30
2018-07-08T18:39:41.601Z,23.30
2018-07-08T18:42:10.328Z,23.20
2018-07-08T18:44:39.003Z,23.20
2018-07-08T18:47:07.780Z,23.20
2018-07-08T18:49:36.391Z,23.00
2018-07-08T18:52:05.053Z,23.00
2018-07-08T18:54:33.674Z,23.00
2018-07-08T18:57:02.289Z,22.90
2018-07-08T18:59:30.941Z,22.90
2018-07-08T19:01:59.731Z,22.80
2018-07-08T19:04:28.945Z,22.70
2018-07-08T19:06:57.581Z,22.60
2018-07-08T19:09:26.165Z,22.50
2018-07-08T19:11:55.125Z,22.50
2018-07-08T19:14:23.718Z,22.50
2018-07-08T19:16:52.328Z,22.40
2018-07-08T19:19:20.857Z,22.30
2018-07-08T19:21:49.388Z,22.20
2018-07-08T19:24:18.062Z,22.20
2018-07-08T19:26:46.812Z,22.10
2018-07-08T19:29:15.352Z,22.10
2018-07-08T19:31:43.798Z,22.00
2018-07-08T19:34:12.262Z,22.00
2018-07-08T19:36:41.080Z,21.90
2018-07-08T19:39:10.475Z,21.80
2018-07-08T19:41:40.091Z,21.80
2018-07-08T19:44:08.684Z,21.70
2018-07-08T19:46:37.530Z,21.70
2018-07-08T19:49:06.144Z,21.50
2018-07-08T19:51:34.797Z,21.50
2018-07-08T19:54:03.710Z,21.40
2018-07-08T19:59:00.565Z,21.20
2018-07-08T20:01:29.041Z,21.10
2018-07-08T20:03:57.635Z,21.10
2018-07-08T20:06:26.167Z,20.90
2018-07-08T20:08:54.592Z,20.80
2018-07-08T20:11:23.012Z,20.80
2018-07-08T20:13:51.558Z,20.70
2018-07-08T20:16:20.036Z,20.60
2018-07-08T20:21:16.797Z,20.20
2018-07-08T20:26:13.238Z,20.10
2018-07-08T20:28:41.970Z,20.00
2018-07-08T20:31:10.440Z,19.90
2018-07-08T20:33:38.858Z,19.80
2018-07-08T20:36:07.690Z,19.80
2018-07-08T20:38:37.114Z,19.80
2018-07-08T20:41:05.624Z,19.80
2018-07-08T20:43:34.093Z,19.70
2018-07-08T20:46:02.509Z,19.60
2018-07-08T20:50:59.109Z,19.60
2018-07-08T20:53:27.633Z,19.50
2018-07-08T20:55:56.702Z,19.50
2018-07-08T20:58:25.117Z,19.40
2018-07-08T21:00:53.513Z,19.40
2018-07-08T21:03:21.960Z,19.40
2018-07-08T21:05:50.383Z,19.30
2018-07-08T21:08:18.836Z,19.30
2018-07-08T21:10:47.231Z,19.30
2018-07-08T21:13:15.670Z,19.20
2018-07-08T21:15:44.152Z,19.20
2018-07-08T21:18:12.656Z,19.10
2018-07-08T21:20:41.098Z,19.10
2018-07-08T21:23:09.503Z,19.10
2018-07-08T21:25:37.961Z,19.00
2018-07-08T21:28:06.599Z,19.00
2018-07-08T21:30:35.045Z,18.90
2018-07-08T21:33:04.285Z,18.90
2018-07-08T21:35:32.895Z,18.80
2018-07-08T21:38:01.314Z,18.80
2018-07-08T21:40:30.362Z,18.70
2018-07-08T21:42:58.794Z,18.60
2018-07-08T21:45:27.252Z,18.60
2018-07-08T21:47:55.704Z,18.60
2018-07-08T21:50:24.134Z,18.50
2018-07-08T21:52:52.554Z,18.50
2018-07-08T21:55:21.206Z,18.40
2018-07-08T22:00:17.945Z,18.40
2018-07-08T22:02:46.420Z,18.30
2018-07-08T22:05:14.865Z,18.20
2018-07-08T22:07:48.758Z,18.20
2018-07-08T22:10:17.865Z,18.10
2018-07-08T22:12:46.505Z,18.00
2018-07-08T22:15:14.939Z,18.00
2018-07-08T22:17:43.369Z,17.90
2018-07-08T22:20:11.796Z,17.80
2018-07-08T22:22:40.224Z,17.70
2018-07-08T22:25:08.785Z,17.70
2018-07-08T22:27:37.192Z,17.70
2018-07-08T22:30:05.617Z,17.60
2018-07-08T22:32:34.038Z,17.50
2018-07-08T22:35:02.650Z,17.50
2018-07-08T22:37:31.044Z,17.50
2018-07-08T22:39:59.527Z,17.50
2018-07-08T22:42:27.956Z,17.40
2018-07-08T22:44:56.382Z,17.40
2018-07-08T22:47:24.800Z,17.30
2018-07-08T22:49:53.319Z,17.30
2018-07-08T22:52:21.749Z,17.30
2018-07-08T22:54:50.172Z,17.20
2018-07-08T22:57:18.576Z,17.20
2018-07-08T22:59:58.269Z,17.20
2018-07-08T23:02:39.881Z,17.10
2018-07-08T23:05:08.322Z,17.10
2018-07-08T23:07:37.054Z,17.00
2018-07-08T23:10:05.625Z,17.00
2018-07-08T23:12:34.110Z,17.00
2018-07-08T23:15:02.719Z,16.90
2018-07-08T23:17:31.142Z,16.80
2018-07-08T23:19:59.905Z,16.80
2018-07-08T23:22:39.625Z,16.70
2018-07-08T23:25:10.001Z,16.70
2018-07-08T23:27:38.623Z,16.70
2018-07-08T23:30:07.429Z,16.60
2018-07-08T23:32:36.197Z,16.50
2018-07-08T23:35:04.616Z,16.50
2018-07-08T23:37:33.092Z,16.50
2018-07-08T23:40:01.521Z,16.30
2018-07-08T23:42:30.121Z,16.30
2018-07-08T23:44:58.576Z,16.30
2018-07-08T23:47:27.032Z,16.20
2018-07-08T23:49:55.526Z,16.20
2018-07-08T23:52:23.962Z,16.20
2018-07-08T23:54:52.415Z,16.10
2018-07-08T23:57:20.851Z,16.10
2018-07-08T23:59:49.314Z,16.00
